Time;durP1;ratioP1;P1;durP2;ratioP2;P2;SDS_P1;SDS_P2;PMS_P1;PMS_P2;Temp;Humidity;BMP_temperature;BMP_pressure;BME280_temperature;BME280_humidity;BME280_pressure;Samples;Min_cycle;Max_cycle;Signal;HPM_P1;HPM_P2
2023/03/03 00:00:15;;;;;;;40.30;22.90;;;0.50;85.90;;;0.40;74.90;98111.03;5104392;27;20488;-69
2023/03/03 00:02:42;;;;;;;43.73;28.47;;;0.70;84.60;;;0.40;74.87;98120.84;5091530;28;20456;-69
2023/03/03 00:05:14;;;;;;;39.50;25.60;;;0.70;84.00;;;0.49;74.17;98121.75;5072993;28;20747;-69
2023/03/03 00:07:44;;;;;;;37.40;25.17;;;0.70;82.60;;;0.36;74.05;98116.78;5119610;27;20442;-69
2023/03/03 00:10:12;;;;;;;38.50;26.73;;;0.70;82.50;;;0.16;75.03;98122.19;5080938;28;20469;-69
2023/03/03 00:12:48;;;;;;;38.00;24.37;;;0.60;82.60;;;0.10;75.18;98120.13;5077025;28;20459;-68
2023/03/03 00:15:17;;;;;;;33.53;24.10;;;0.50;82.90;;;0.22;74.56;98110.97;5072664;28;20475;-68
2023/03/03 00:17:45;;;;;;;35.23;22.57;;;0.50;83.40;;;0.17;74.56;98115.06;5087623;28;20455;-69
2023/03/03 00:20:34;;;;;;;32.97;22.50;;;0.40;83.10;;;0.22;74.29;98118.13;5075691;28;20452;-68
2023/03/03 00:23:19;;;;;;;31.60;22.43;;;0.40;82.90;;;0.12;74.38;98120.81;5081246;28;20455;-68
2023/03/03 00:25:50;;;;;;;34.40;23.07;;;0.30;83.30;;;-0.06;75.48;98126.03;5092820;28;20554;-69
2023/03/03 00:28:26;;;;;;;30.27;21.67;;;0.20;83.80;;;-0.12;75.33;98127.47;5088299;27;20515;-69
2023/03/03 00:30:55;;;;;;;36.53;21.70;;;0.20;84.60;;;-0.01;75.61;98127.28;5088107;28;20516;-70
2023/03/03 00:33:34;;;;;;;30.53;20.03;;;0.20;85.00;;;-0.03;75.23;98131.91;5089479;28;20450;-68
2023/03/03 00:36:27;;;;;;;32.73;20.63;;;0.20;84.20;;;-0.15;74.99;98127.75;5083101;27;20444;-69
2023/03/03 00:38:59;;;;;;;37.50;23.20;;;0.20;84.30;;;-0.17;75.71;98119.09;5078300;28;20469;-68
2023/03/03 00:41:28;;;;;;;30.07;20.37;;;0.10;84.60;;;-0.75;75.89;98046.56;5084568;28;20778;-68
2023/03/03 00:43:58;;;;;;;27.70;20.77;;;0.10;85.10;;;-0.21;76.09;98117.72;5067754;28;21384;-68
2023/03/03 00:46:25;;;;;;;33.23;21.53;;;0.00;85.80;;;-0.70;75.74;98056.75;5106782;27;20952;-68
2023/03/03 00:48:53;;;;;;;32.60;21.10;;;0.00;85.20;;;-0.20;75.77;98133.50;5070907;28;20451;-69
2023/03/03 00:51:28;;;;;;;32.47;20.90;;;0.00;85.50;;;-0.18;75.37;98130.69;5102605;27;20502;-71
2023/03/03 00:53:57;;;;;;;34.40;21.80;;;0.00;85.40;;;-0.54;75.46;98066.78;5078167;28;20484;-68
2023/03/03 00:56:24;;;;;;;34.20;22.57;;;0.00;85.10;;;-0.31;75.49;98121.22;5069699;28;20448;-68
2023/03/03 00:58:52;;;;;;;35.03;22.90;;;0.00;85.30;;;-0.39;76.55;98133.53;5066714;28;20456;-69
2023/03/03 01:01:20;;;;;;;39.40;21.67;;;-0.10;85.80;;;-0.38;76.10;98138.72;5104932;27;20886;-69
2023/03/03 01:03:48;;;;;;;32.13;21.57;;;-0.10;86.00;;;-0.51;76.47;98117.75;5068583;28;20460;-69
2023/03/03 01:06:15;;;;;;;32.47;21.90;;;-0.10;86.30;;;-0.41;76.10;98138.16;5067203;28;20987;-68
2023/03/03 01:08:43;;;;;;;34.77;23.60;;;-0.20;86.30;;;-0.55;76.76;98132.31;5088463;28;20454;-69
2023/03/03 01:11:15;;;;;;;36.50;23.83;;;-0.20;86.50;;;-0.60;77.19;98130.06;5100157;28;20458;-69
2023/03/03 01:13:44;;;;;;;38.20;23.10;;;-0.30;86.90;;;-0.63;76.92;98129.50;5076995;28;20467;-70
2023/03/03 01:16:11;;;;;;;33.13;21.83;;;-0.30;87.10;;;-0.55;76.34;98132.31;5080271;28;20497;-70
2023/03/03 01:18:41;;;;;;;34.60;23.90;;;-0.30;87.30;;;-0.50;76.67;98129.25;5085097;28;20470;-68
2023/03/03 01:21:09;;;;;;;36.50;23.07;;;-0.20;87.40;;;-0.22;75.41;98130.16;5084701;28;20474;-70
2023/03/03 01:23:36;;;;;;;32.47;22.10;;;-0.10;86.20;;;-0.76;74.65;98028.97;5084911;28;20441;-68
2023/03/03 01:26:04;;;;;;;30.37;21.67;;;0.00;84.70;;;-0.18;74.31;98136.00;5086565;28;20455;-68
2023/03/03 01:28:33;;;;;;;35.57;21.70;;;0.10;82.40;;;-0.34;74.93;98131.28;5083697;28;20444;-69
2023/03/03 01:31:02;;;;;;;33.10;21.00;;;0.00;82.40;;;-0.67;76.11;98121.03;5086493;28;20455;-68
2023/03/03 01:33:31;;;;;;;30.90;21.07;;;-0.10;83.10;;;-0.71;76.31;98124.91;5082864;28;20475;-68
2023/03/03 01:36:00;;;;;;;33.20;21.10;;;-0.10;83.40;;;-0.62;75.81;98126.72;5076503;28;20478;-68
2023/03/03 01:38:27;;;;;;;33.97;21.30;;;-0.20;83.50;;;-0.74;75.47;98111.94;5087661;28;20785;-69
2023/03/03 01:40:57;;;;;;;34.03;21.17;;;-0.30;83.80;;;-0.80;76.35;98115.16;5104256;28;20447;-69
2023/03/03 01:43:26;;;;;;;36.03;21.43;;;-0.30;84.40;;;-1.11;76.15;98062.25;5086111;28;20446;-68
2023/03/03 01:46:30;;;;;;;31.70;19.47;;;-0.40;84.70;;;-0.91;77.14;98101.06;5088814;28;20493;-69
2023/03/03 01:49:02;;;;;;;38.00;21.77;;;-0.50;85.30;;;-0.88;76.53;98099.94;5101768;28;20459;-68
2023/03/03 01:51:35;;;;;;;30.33;19.60;;;-0.50;86.30;;;-0.91;76.85;98106.34;5096914;28;20456;-67
2023/03/03 01:54:04;;;;;;;31.10;19.50;;;-0.50;86.00;;;-0.89;76.71;98108.88;5082005;28;20456;-68
2023/03/03 01:56:32;;;;;;;35.33;22.37;;;-0.50;86.30;;;-0.88;76.94;98114.03;5081406;28;20526;-67
2023/03/03 01:59:06;;;;;;;32.80;20.43;;;-0.60;86.50;;;-1.19;76.00;98025.84;5090440;28;20451;-68
2023/03/03 02:01:34;;;;;;;30.13;19.50;;;-0.50;87.10;;;-1.30;75.98;98027.63;5089700;28;20463;-69
2023/03/03 02:04:01;;;;;;;27.33;18.20;;;-0.40;84.80;;;-0.91;75.98;98111.66;5087383;28;20467;-69
2023/03/03 02:06:36;;;;;;;29.90;20.43;;;-0.60;85.00;;;-0.96;76.74;98108.59;5093420;28;20459;-70
2023/03/03 02:09:11;;;;;;;32.60;20.90;;;-0.60;86.00;;;-1.07;76.64;98111.38;5073070;28;20458;-69
2023/03/03 02:11:42;;;;;;;28.30;20.93;;;-0.70;86.30;;;-0.89;76.41;98136.22;5076484;28;20453;-68
2023/03/03 02:14:10;;;;;;;30.03;20.23;;;-0.70;87.40;;;-0.95;75.66;98104.97;5091938;28;20474;-72
2023/03/03 02:16:38;;;;;;;30.63;19.60;;;-0.70;86.00;;;-1.14;76.95;98111.09;5093886;28;20454;-68
2023/03/03 02:19:10;;;;;;;29.97;20.60;;;-0.70;86.30;;;-1.20;77.71;98116.97;5080646;28;20509;-68
2023/03/03 02:21:39;;;;;;;30.97;19.30;;;-0.80;86.90;;;-1.22;77.89;98111.78;5099629;28;20448;-69
2023/03/03 02:24:14;;;;;;;32.70;21.13;;;-0.90;87.60;;;-1.25;77.65;98113.88;5077452;28;20912;-69
2023/03/03 02:26:44;;;;;;;28.33;18.70;;;-0.90;87.80;;;-1.27;77.12;98106.06;5074205;28;20505;-69
2023/03/03 02:29:11;;;;;;;30.80;19.70;;;-1.00;88.00;;;-1.33;77.82;98112.75;5080234;28;20463;-70
2023/03/03 02:31:38;;;;;;;32.20;20.30;;;-1.00;87.70;;;-1.21;77.55;98118.75;5092528;28;20853;-68
2023/03/03 02:34:06;;;;;;;29.80;20.90;;;-0.90;88.10;;;-1.28;77.25;98117.66;5084198;28;22719;-70
2023/03/03 02:36:36;;;;;;;38.17;21.10;;;-1.00;87.80;;;-1.33;77.58;98114.56;5071601;28;20456;-69
2023/03/03 02:39:09;;;;;;;30.20;18.67;;;-1.00;88.00;;;-1.39;77.87;98126.53;5074099;28;20482;-68
2023/03/03 02:41:43;;;;;;;34.77;21.07;;;-1.00;88.40;;;-1.39;78.22;98112.47;5100397;27;20444;-69
2023/03/03 02:44:12;;;;;;;31.83;18.60;;;-1.00;88.00;;;-1.48;78.29;98109.66;5086810;28;20465;-70
2023/03/03 02:46:43;;;;;;;33.47;20.27;;;-1.00;87.90;;;-1.44;77.60;98116.38;5067888;28;20451;-69
2023/03/03 02:49:13;;;;;;;35.23;19.20;;;-1.00;87.70;;;-1.35;77.26;98109.41;5070017;28;20497;-68
2023/03/03 02:51:41;;;;;;;31.10;20.50;;;-1.00;87.60;;;-1.38;76.89;98119.44;5086622;28;20518;-69
2023/03/03 02:54:10;;;;;;;30.80;19.83;;;-1.10;87.30;;;-1.43;77.33;98118.03;5084343;28;20903;-68
2023/03/03 02:56:37;;;;;;;32.90;21.60;;;-1.10;87.60;;;-1.51;77.73;98117.88;5081372;27;20452;-67
2023/03/03 02:59:07;;;;;;;37.33;23.73;;;-1.20;88.20;;;-1.48;77.71;98124.72;5071614;28;20459;-68
2023/03/03 03:01:36;;;;;;;32.10;20.93;;;-1.20;88.70;;;-1.49;78.03;98123.06;5075979;28;21009;-67
2023/03/03 03:04:07;;;;;;;33.63;20.97;;;-1.20;88.70;;;-1.56;77.54;98114.81;5073191;28;20797;-69
2023/03/03 03:06:34;;;;;;;36.73;23.10;;;-1.20;88.70;;;-1.53;78.02;98121.63;5083580;28;20460;-67
2023/03/03 03:09:02;;;;;;;35.83;22.50;;;-1.30;88.60;;;-1.55;78.40;98111.19;5085316;28;20460;-67
2023/03/03 03:11:29;;;;;;;31.43;20.10;;;-1.30;89.20;;;-1.46;77.78;98115.66;5077752;28;20495;-67
2023/03/03 03:13:56;;;;;;;30.73;20.30;;;-1.20;88.60;;;-1.59;78.00;98120.38;5087187;28;20832;-68
2023/03/03 03:16:25;;;;;;;36.43;22.40;;;-1.30;88.30;;;-1.68;78.11;98119.34;5095590;28;20472;-68
2023/03/03 03:18:52;;;;;;;39.73;24.97;;;-1.30;88.70;;;-1.73;78.05;98098.59;5096067;27;20498;-69
2023/03/03 03:21:19;;;;;;;43.83;25.83;;;-1.30;89.20;;;-1.66;78.27;98127.19;5092858;28;20459;-68
2023/03/03 03:23:47;;;;;;;36.00;24.27;;;-1.30;89.40;;;-1.59;77.80;98118.56;5121758;27;20452;-69
2023/03/03 03:26:14;;;;;;;39.70;24.97;;;-1.30;89.30;;;-1.59;78.07;98128.34;5083849;28;20505;-69
2023/03/03 03:28:41;;;;;;;47.33;28.67;;;-1.30;89.40;;;-1.62;77.83;98129.44;5114733;27;20478;-68
2023/03/03 03:31:10;;;;;;;45.30;27.70;;;-1.20;88.40;;;-1.56;77.77;98117.47;5110718;28;20439;-67
2023/03/03 03:33:38;;;;;;;43.40;27.03;;;-1.10;87.50;;;-1.49;77.09;98128.34;5096826;27;20990;-68
2023/03/03 03:36:07;;;;;;;41.53;25.90;;;-1.10;86.60;;;-1.50;76.96;98132.81;5082578;28;20471;-68
2023/03/03 03:38:36;;;;;;;38.87;24.70;;;-1.00;86.30;;;-1.55;76.65;98113.84;5088987;28;20516;-68
2023/03/03 03:41:05;;;;;;;38.93;23.50;;;-1.00;85.70;;;-1.78;76.68;98084.06;5079371;28;20452;-71
2023/03/03 03:43:33;;;;;;;36.00;23.43;;;-1.10;85.40;;;-1.52;77.11;98126.81;5080391;28;20542;-69
2023/03/03 03:46:00;;;;;;;32.33;21.73;;;-1.10;85.70;;;-1.59;76.84;98128.34;5079280;28;20517;-70
2023/03/03 03:48:28;;;;;;;39.47;23.40;;;-1.10;85.60;;;-1.38;75.91;98130.88;5081266;28;20452;-69
2023/03/03 03:50:56;;;;;;;36.37;21.63;;;-1.10;85.10;;;-1.46;76.05;98139.50;5103374;27;21023;-69
2023/03/03 03:53:24;;;;;;;30.60;19.37;;;-1.10;84.70;;;-1.46;76.21;98139.50;5076545;28;20532;-70
2023/03/03 03:55:51;;;;;;;27.77;17.93;;;-1.10;85.10;;;-1.22;75.48;98134.81;5077888;28;20568;-68
2023/03/03 03:58:19;;;;;;;28.43;18.27;;;-1.00;84.00;;;-1.32;75.31;98134.78;5089956;28;21493;-70
2023/03/03 04:00:47;;;;;;;24.47;15.80;;;-0.90;83.10;;;-1.31;75.30;98141.75;5094325;28;20509;-68
2023/03/03 04:03:15;;;;;;;25.07;17.57;;;-1.00;82.70;;;-1.57;76.17;98121.09;5085465;28;20451;-68
2023/03/03 04:05:42;;;;;;;26.47;16.77;;;-1.10;82.60;;;-1.74;76.77;98135.81;5078435;28;20452;-69
2023/03/03 04:08:11;;;;;;;30.60;19.23;;;-1.30;83.80;;;-1.75;77.40;98129.66;5074627;28;20764;-68
2023/03/03 04:10:39;;;;;;;32.70;20.40;;;-1.30;85.10;;;-1.82;77.34;98136.47;5095314;28;20513;-69
2023/03/03 04:13:06;;;;;;;33.70;22.00;;;-1.50;86.10;;;-1.90;77.76;98137.13;5091813;28;20520;-68
2023/03/03 04:15:33;;;;;;;35.10;22.23;;;-1.50;87.30;;;-1.84;78.17;98130.47;5083913;28;20480;-69
2023/03/03 04:18:01;;;;;;;34.50;22.87;;;-1.50;88.00;;;-1.92;78.19;98127.63;5088560;28;20440;-68
2023/03/03 04:20:28;;;;;;;39.00;22.33;;;-1.60;88.30;;;-2.08;78.41;98097.19;5114675;27;20791;-68
2023/03/03 04:22:56;;;;;;;39.47;24.90;;;-1.60;89.00;;;-1.87;78.42;98130.75;5076329;28;20448;-68
2023/03/03 04:25:25;;;;;;;40.57;25.57;;;-1.60;89.30;;;-1.92;78.02;98122.34;5092539;27;20472;-69
2023/03/03 04:27:53;;;;;;;43.23;26.93;;;-1.60;89.40;;;-2.15;78.29;98106.66;5083147;28;20443;-68
2023/03/03 04:30:20;;;;;;;43.00;24.27;;;-1.70;89.80;;;-1.85;78.00;98144.69;5084284;28;20459;-66
2023/03/03 04:32:48;;;;;;;37.30;23.53;;;-1.60;90.40;;;-1.61;77.61;98146.16;5074805;28;20444;-68
2023/03/03 04:35:15;;;;;;;33.30;21.07;;;-1.40;90.00;;;-1.84;77.79;98146.38;5099346;27;20475;-69
2023/03/03 04:37:43;;;;;;;54.63;33.57;;;-1.50;88.40;;;-1.90;78.61;98149.53;5073651;28;20459;-68
2023/03/03 04:40:11;;;;;;;50.80;28.83;;;-1.60;89.00;;;-1.88;78.53;98144.97;5086968;28;21193;-69
2023/03/03 04:42:40;;;;;;;48.80;30.97;;;-1.60;90.00;;;-1.93;78.19;98147.16;5068204;28;20556;-67
2023/03/03 04:45:08;;;;;;;44.17;25.00;;;-1.60;90.00;;;-1.96;78.92;98150.06;5064539;28;20459;-69
2023/03/03 04:47:36;;;;;;;31.27;21.67;;;-1.60;90.20;;;-2.08;79.38;98144.03;5070831;28;21006;-70
2023/03/03 04:50:03;;;;;;;40.17;24.93;;;-1.60;90.00;;;-2.11;79.29;98145.13;5064777;28;20477;-68
2023/03/03 04:52:31;;;;;;;42.47;24.53;;;-1.60;90.10;;;-2.08;79.00;98139.56;5068634;28;20962;-69
2023/03/03 04:54:58;;;;;;;87.27;40.13;;;-1.70;90.30;;;-2.04;79.37;98150.72;5084055;28;20455;-68
2023/03/03 04:57:25;;;;;;;109.83;49.30;;;-1.60;90.00;;;-2.12;79.94;98146.09;5070608;28;20439;-68
2023/03/03 04:59:54;;;;;;;118.83;53.93;;;-1.50;90.00;;;-2.05;79.47;98149.06;5067132;28;20449;-68
2023/03/03 05:02:21;;;;;;;95.13;44.17;;;-1.50;89.90;;;-1.85;78.38;98147.34;5071931;28;20882;-68
2023/03/03 05:04:49;;;;;;;57.60;29.73;;;-1.50;89.30;;;-1.78;77.83;98156.41;5074381;28;20925;-69
2023/03/03 05:07:18;;;;;;;46.13;25.03;;;-1.40;88.70;;;-1.99;78.22;98127.31;5094708;28;20451;-71
2023/03/03 05:09:45;;;;;;;33.20;20.63;;;-1.40;88.80;;;-1.94;78.57;98167.50;5081345;28;20468;-68
2023/03/03 05:12:12;;;;;;;31.87;21.20;;;-1.50;88.50;;;-1.92;78.44;98154.13;5090103;28;20446;-67
2023/03/03 05:14:39;;;;;;;33.20;20.43;;;-1.50;87.70;;;-2.03;78.74;98157.69;5102630;27;20477;-68
2023/03/03 05:17:09;;;;;;;29.10;19.30;;;-1.60;88.30;;;-2.22;79.32;98167.22;5084377;28;20528;-66
2023/03/03 05:19:37;;;;;;;28.80;19.50;;;-1.60;88.90;;;-2.29;79.79;98158.97;5097643;27;20788;-68
2023/03/03 05:22:04;;;;;;;33.30;19.37;;;-1.70;89.70;;;-2.34;80.11;98166.47;5103820;27;20468;-68
2023/03/03 05:24:31;;;;;;;30.60;19.30;;;-1.80;90.20;;;-2.23;79.67;98168.19;5092137;28;20950;-67
2023/03/03 05:26:58;;;;;;;31.20;20.70;;;-1.80;90.50;;;-2.26;80.56;98170.25;5088387;28;20463;-68
2023/03/03 05:29:27;;;;;;;35.33;20.20;;;-1.80;90.80;;;-2.33;80.53;98172.56;5086771;28;20446;-68
2023/03/03 05:31:54;;;;;;;32.47;20.03;;;-1.80;91.00;;;-2.37;80.91;98176.47;5084264;28;20558;-70
2023/03/03 05:34:23;;;;;;;35.10;21.10;;;-1.80;91.00;;;-2.33;81.10;98162.84;5112739;27;20471;-68
2023/03/03 05:36:50;;;;;;;32.40;20.13;;;-1.80;91.00;;;-2.46;81.28;98168.31;5079846;28;20910;-69
2023/03/03 05:39:17;;;;;;;31.30;19.67;;;-1.80;91.00;;;-2.87;80.88;98075.59;5084145;28;20863;-69
2023/03/03 05:41:45;;;;;;;35.17;20.23;;;-1.80;90.90;;;-2.29;80.63;98179.28;5097644;27;20471;-70
2023/03/03 05:44:12;;;;;;;32.67;20.87;;;-1.80;90.90;;;-2.23;79.86;98177.94;5077367;28;20520;-67
2023/03/03 05:46:41;;;;;;;35.77;21.37;;;-1.80;91.20;;;-2.29;80.00;98171.34;5094113;28;20455;-69
2023/03/03 05:49:08;;;;;;;36.03;22.57;;;-1.80;91.10;;;-2.29;80.96;98182.78;5103253;27;20792;-70
2023/03/03 05:51:37;;;;;;;33.30;19.43;;;-1.80;91.30;;;-2.03;79.48;98185.03;5085205;28;20459;-71
2023/03/03 05:54:04;;;;;;;31.97;20.50;;;-1.70;91.10;;;-2.15;79.38;98186.06;5083825;28;20475;-66
2023/03/03 05:56:31;;;;;;;35.57;21.17;;;-1.70;90.40;;;-2.30;80.84;98182.91;5084700;28;20501;-71
2023/03/03 05:58:59;;;;;;;35.77;21.60;;;-1.80;90.90;;;-2.21;80.41;98183.94;5086599;28;20462;-70
2023/03/03 06:01:28;;;;;;;31.67;19.77;;;-1.70;91.00;;;-2.31;80.84;98184.72;5096122;28;20505;-71
2023/03/03 06:03:55;;;;;;;40.37;20.30;;;-1.80;91.00;;;-2.33;80.80;98205.19;5089723;28;20968;-79
2023/03/03 06:06:23;;;;;;;35.67;23.33;;;-1.70;91.00;;;-2.44;81.09;98197.31;5086333;28;20465;-70
2023/03/03 06:08:52;;;;;;;37.87;21.00;;;-1.80;91.10;;;-2.33;81.43;98205.19;5085808;28;20899;-70
2023/03/03 06:11:20;;;;;;;33.83;20.80;;;-1.80;91.30;;;-2.24;80.71;98208.03;5069985;28;20490;-75
2023/03/03 06:13:47;;;;;;;36.10;21.00;;;-1.70;91.60;;;-2.22;81.07;98206.09;5088274;28;20466;-74
2023/03/03 06:16:14;;;;;;;33.27;21.60;;;-1.70;91.40;;;-2.08;80.39;98203.09;5084500;28;20478;-72
2023/03/03 06:18:41;;;;;;;34.57;21.93;;;-1.70;91.50;;;-2.06;80.33;98201.16;5094731;28;20466;-72
2023/03/03 06:21:08;;;;;;;33.33;20.93;;;-1.60;91.10;;;-2.35;80.55;98137.47;5096445;28;20458;-73
2023/03/03 06:23:36;;;;;;;38.73;21.97;;;-1.60;91.20;;;-1.94;79.97;98206.38;5100429;28;20463;-73
2023/03/03 06:26:05;;;;;;;39.00;22.07;;;-1.50;91.20;;;-1.85;80.00;98206.44;5118406;27;20460;-71
2023/03/03 06:28:32;;;;;;;38.00;23.23;;;-1.50;91.10;;;-1.65;78.88;98219.78;5104132;28;20510;-75
2023/03/03 06:30:59;;;;;;;38.80;22.87;;;-1.30;90.90;;;-1.46;78.34;98219.00;5088444;28;20468;-74
2023/03/03 06:33:27;;;;;;;36.60;21.70;;;-1.10;89.60;;;-1.55;78.65;98229.59;5089002;28;21079;-75
2023/03/03 06:35:55;;;;;;;34.30;21.97;;;-1.00;88.20;;;-1.44;78.44;98238.31;5073345;28;20473;-72
2023/03/03 06:38:22;;;;;;;34.90;21.03;;;-1.00;87.60;;;-1.28;77.94;98242.25;5080050;28;20567;-70
2023/03/03 06:40:49;;;;;;;39.70;23.17;;;-0.90;86.90;;;-1.14;77.25;98249.00;5105027;27;20459;-71
2023/03/03 06:43:18;;;;;;;36.27;22.23;;;-0.70;85.50;;;-1.07;76.92;98249.28;5084842;28;20861;-68
2023/03/03 06:45:45;;;;;;;34.60;22.07;;;-0.60;84.80;;;-0.86;75.98;98239.41;5092280;27;20463;-69
2023/03/03 06:48:13;;;;;;;38.60;22.03;;;-0.40;83.90;;;-0.71;75.57;98239.03;5085644;28;20463;-70
2023/03/03 06:50:41;;;;;;;34.67;22.07;;;-0.30;82.70;;;-0.50;74.33;98238.91;5105824;28;20442;-71
2023/03/03 06:53:13;;;;;;;36.13;23.13;;;-0.20;81.40;;;-0.30;74.40;98244.22;5093004;27;20575;-71
2023/03/03 06:55:43;;;;;;;37.90;23.43;;;0.00;81.50;;;-0.08;73.63;98245.72;5069328;28;20460;-69
2023/03/03 06:58:14;;;;;;;42.47;22.90;;;0.20;80.80;;;-0.02;73.40;98244.31;5090588;27;20461;-69
2023/03/03 07:00:45;;;;;;;36.17;23.77;;;0.30;79.90;;;0.38;74.80;98235.28;5065168;28;20441;-69
2023/03/03 07:03:16;;;;;;;34.90;23.10;;;0.70;83.70;;;0.59;71.94;98230.72;5076642;28;20480;-70
2023/03/03 07:05:44;;;;;;;40.53;22.70;;;0.80;79.30;;;0.60;71.37;98245.72;5073338;28;20453;-68
2023/03/03 07:08:16;;;;;;;37.87;24.60;;;0.90;78.10;;;0.70;70.85;98244.66;5073385;28;20610;-68
2023/03/03 07:10:44;;;;;;;40.70;23.90;;;1.00;77.50;;;0.71;69.79;98213.59;5083851;28;20462;-68
2023/03/03 07:13:21;;;;;;;41.43;25.77;;;1.10;77.00;;;0.88;69.42;98249.22;5071099;28;20771;-69
2023/03/03 07:15:52;;;;;;;39.33;25.13;;;1.20;76.30;;;0.36;70.78;98257.66;5077789;28;20472;-67
2023/03/03 07:18:38;;;;;;;37.50;24.90;;;1.10;75.90;;;-0.03;71.15;98195.69;5076370;28;20467;-69
2023/03/03 07:21:21;;;;;;;37.37;25.60;;;0.90;76.60;;;0.65;71.13;98272.69;5079278;28;20457;-68
2023/03/03 07:23:50;;;;;;;37.80;24.30;;;1.00;77.00;;;0.65;70.67;98267.38;5103608;28;20439;-67
2023/03/03 07:26:22;;;;;;;41.90;24.10;;;1.10;76.60;;;0.70;70.40;98265.13;5079835;28;20469;-69
2023/03/03 07:28:54;;;;;;;40.93;24.10;;;1.10;76.50;;;0.38;70.77;98256.53;5073568;28;20665;-69
2023/03/03 07:31:34;;;;;;;37.50;23.90;;;1.00;76.30;;;0.04;72.10;98274.78;5082776;28;20458;-67
2023/03/03 07:34:05;;;;;;;39.80;23.50;;;0.70;76.40;;;0.05;72.38;98281.78;5084726;28;20443;-68
2023/03/03 07:36:37;;;;;;;34.13;21.97;;;0.60;77.30;;;0.06;72.93;98276.34;5074529;28;20480;-68
2023/03/03 07:39:26;;;;;;;41.23;24.27;;;0.60;77.80;;;-0.04;72.95;98288.78;5084459;28;20951;-68
2023/03/03 07:41:55;;;;;;;41.83;24.40;;;0.60;77.80;;;-0.06;73.54;98288.94;5091033;28;20503;-69
2023/03/03 07:44:35;;;;;;;37.07;22.30;;;0.50;78.10;;;-0.06;73.34;98286.28;5080600;28;20518;-67
2023/03/03 07:47:19;;;;;;;40.73;24.40;;;0.50;78.50;;;0.02;73.81;98287.38;5071140;28;20481;-68
2023/03/03 07:49:48;;;;;;;38.03;23.70;;;0.50;78.60;;;0.24;72.82;98279.13;5068948;28;20480;-68
2023/03/03 07:52:27;;;;;;;41.47;25.90;;;0.60;78.90;;;0.31;72.35;98291.81;5075283;28;20454;-68
2023/03/03 07:54:57;;;;;;;41.27;24.13;;;0.80;78.00;;;0.47;71.97;98294.72;5081726;28;20710;-67
2023/03/03 07:57:27;;;;;;;39.67;25.30;;;0.90;77.80;;;0.64;71.29;98297.59;5074955;28;20479;-70
2023/03/03 08:00:02;;;;;;;47.47;25.50;;;1.00;77.70;;;0.90;70.50;98302.28;5078338;28;20455;-70
2023/03/03 08:02:41;;;;;;;41.10;25.53;;;1.20;77.40;;;0.87;70.86;98307.91;5090874;28;20443;-68
2023/03/03 08:05:30;;;;;;;42.97;25.33;;;1.30;77.10;;;1.00;70.85;98311.06;5082181;28;20466;-69
2023/03/03 08:08:29;;;;;;;40.60;24.03;;;1.40;77.10;;;1.30;69.80;98308.25;5083115;28;20814;-69
2023/03/03 08:10:58;;;;;;;40.47;24.50;;;1.60;76.30;;;1.38;69.13;98301.19;5083789;28;20475;-73
2023/03/03 08:13:36;;;;;;;40.53;24.20;;;1.70;75.90;;;1.53;68.19;98308.66;5077848;28;20591;-69
2023/03/03 08:16:30;;;;;;;38.63;23.47;;;1.90;75.40;;;1.48;68.33;98309.09;5070107;28;20468;-71
2023/03/03 08:19:03;;;;;;;38.60;24.10;;;1.90;74.80;;;1.61;68.81;98310.56;5071948;28;20566;-71
2023/03/03 08:21:31;;;;;;;40.23;25.40;;;2.00;75.30;;;1.54;67.87;98305.00;5066836;28;20460;-70
2023/03/03 08:23:58;;;;;;;39.33;24.00;;;2.10;74.50;;;1.37;67.20;98251.59;5084932;27;20455;-72
2023/03/03 08:26:27;;;;;;;38.27;24.07;;;2.20;74.20;;;1.80;67.87;98305.09;5084778;27;20741;-71
2023/03/03 08:28:55;;;;;;;41.60;24.37;;;2.20;74.50;;;1.75;67.99;98301.25;5106637;27;20563;-70
2023/03/03 08:31:22;;;;;;;35.53;24.00;;;2.20;74.30;;;2.12;66.41;98300.22;5082452;28;20455;-70
2023/03/03 08:33:50;;;;;;;36.70;23.20;;;2.40;74.30;;;2.00;66.33;98291.63;5095404;27;20545;-69
2023/03/03 08:36:19;;;;;;;41.37;25.20;;;2.50;73.90;;;2.12;66.42;98308.22;5072125;28;20488;-69
2023/03/03 08:38:46;;;;;;;37.90;24.10;;;2.50;73.70;;;2.21;66.21;98309.13;5072183;27;20567;-70
2023/03/03 08:41:13;;;;;;;43.77;26.23;;;2.60;73.70;;;2.38;65.99;98307.41;5084369;28;20949;-69
2023/03/03 08:43:40;;;;;;;38.50;25.20;;;2.80;73.90;;;2.49;65.46;98315.16;5077023;28;20456;-72
2023/03/03 08:46:09;;;;;;;38.30;23.67;;;2.80;73.20;;;2.40;64.69;98300.09;5074411;28;20462;-73
2023/03/03 08:48:36;;;;;;;46.00;26.10;;;2.80;72.70;;;2.61;64.16;98306.88;5074251;28;20491;-70
2023/03/03 08:51:03;;;;;;;41.33;25.63;;;3.00;72.70;;;2.74;64.10;98309.97;5075714;28;20453;-70
2023/03/03 08:53:35;;;;;;;40.87;23.87;;;3.00;72.20;;;2.87;63.45;98311.38;5069036;28;20467;-69
2023/03/03 08:56:02;;;;;;;34.23;22.93;;;3.10;72.20;;;2.80;62.83;98317.34;5073599;28;20485;-68
2023/03/03 08:58:31;;;;;;;42.83;26.17;;;3.30;71.20;;;2.95;63.08;98314.06;5071871;28;20445;-69
2023/03/03 09:00:59;;;;;;;38.40;24.00;;;3.30;71.10;;;3.00;63.01;98309.13;5090392;28;20541;-69
2023/03/03 09:03:26;;;;;;;37.97;24.90;;;3.40;71.00;;;3.05;62.71;98303.31;5074438;28;20500;-69
2023/03/03 09:05:53;;;;;;;37.27;23.60;;;3.50;70.60;;;2.65;62.71;98242.38;5072217;28;20995;-70
2023/03/03 09:08:20;;;;;;;42.13;25.13;;;3.50;70.30;;;3.25;62.10;98298.53;5067060;28;20970;-70
2023/03/03 09:10:49;;;;;;;33.97;23.80;;;3.60;70.50;;;3.45;61.15;98298.28;5092038;28;20457;-70
2023/03/03 09:13:18;;;;;;;37.87;24.33;;;3.80;69.80;;;3.65;60.28;98286.28;5085386;28;20456;-72
2023/03/03 09:15:46;;;;;;;42.43;24.60;;;3.90;69.30;;;3.87;60.08;98291.16;5079672;28;20458;-69
2023/03/03 09:18:17;;;;;;;40.23;24.87;;;4.00;69.00;;;4.02;59.08;98294.00;5101728;27;20487;-70
2023/03/03 09:20:47;;;;;;;38.40;23.47;;;4.20;68.70;;;4.14;58.74;98298.00;5103927;28;20445;-70
2023/03/03 09:23:34;;;;;;;36.67;24.60;;;4.40;68.70;;;4.11;57.96;98299.19;5084811;28;20921;-70
2023/03/03 09:26:27;;;;;;;34.90;23.57;;;4.50;66.90;;;4.23;57.88;98294.34;5111197;27;20449;-72
2023/03/03 09:28:56;;;;;;;38.87;24.53;;;4.50;66.70;;;4.41;57.06;98296.00;5078460;28;20456;-70
2023/03/03 09:31:27;;;;;;;35.80;24.03;;;4.60;66.10;;;4.38;57.47;98299.00;5073264;28;20458;-69
2023/03/03 09:33:56;;;;;;;40.50;23.50;;;4.70;65.80;;;4.56;57.08;98290.81;5076089;28;20459;-68
2023/03/03 09:36:29;;;;;;;38.50;24.30;;;4.80;65.60;;;4.67;57.13;98298.47;5078054;28;20537;-67
2023/03/03 09:38:57;;;;;;;36.90;23.40;;;4.90;65.70;;;4.94;55.86;98304.41;5084496;28;20463;-69
2023/03/03 09:42:07;;;;;;;34.97;22.20;;;5.10;64.90;;;4.91;55.91;98303.91;5073720;28;20532;-69
2023/03/03 09:45:10;;;;;;;36.20;22.60;;;5.20;63.80;;;5.01;56.14;98315.28;5059580;28;20526;-67
2023/03/03 09:48:01;;;;;;;39.90;23.20;;;5.20;63.90;;;4.89;56.78;98316.66;5076624;28;20466;-69
2023/03/03 09:50:40;;;;;;;37.17;23.23;;;5.20;63.70;;;4.60;56.95;98299.31;5113987;27;20451;-72
2023/03/03 09:53:22;;;;;;;38.10;24.30;;;5.20;64.20;;;4.92;57.11;98305.59;5084929;27;20946;-68
2023/03/03 09:55:59;;;;;;;33.40;24.03;;;5.20;64.30;;;5.18;56.14;98310.72;5086960;28;20556;-69
2023/03/03 09:58:44;;;;;;;34.13;22.13;;;5.40;63.80;;;5.31;54.78;98306.66;5086812;28;20951;-68
2023/03/03 10:01:34;;;;;;;35.63;22.93;;;5.60;62.90;;;5.37;55.34;98314.78;5080864;28;20465;-69
2023/03/03 10:04:25;;;;;;;34.90;23.13;;;5.60;62.80;;;5.39;55.15;98304.75;5087894;28;20537;-66
2023/03/03 10:07:01;;;;;;;34.87;23.27;;;5.70;62.80;;;5.74;55.21;98316.97;5092527;28;20458;-69
2023/03/03 10:10:11;;;;;;;33.80;22.70;;;5.80;62.90;;;5.70;54.64;98313.78;5093204;28;20452;-68
2023/03/03 10:12:47;;;;;;;40.90;23.30;;;6.00;62.30;;;5.94;53.82;98315.47;5080536;28;20903;-68
2023/03/03 10:15:35;;;;;;;33.37;23.17;;;6.10;62.00;;;6.04;53.08;98314.44;5078838;28;20457;-69
2023/03/03 10:18:24;;;;;;;34.20;22.40;;;6.30;61.60;;;5.95;53.50;98319.84;5079322;28;20483;-68
2023/03/03 10:21:05;;;;;;;35.67;23.63;;;6.30;60.70;;;5.94;53.21;98323.53;5073079;28;20523;-68
2023/03/03 10:23:54;;;;;;;33.00;22.70;;;6.20;60.40;;;5.96;53.38;98316.13;5071689;28;20475;-68
2023/03/03 10:26:42;;;;;;;31.47;21.07;;;6.10;60.20;;;6.30;52.43;98307.88;5073190;28;20922;-70